Main page
METAR-TAF:

METAR-TAF

Airports :

Copenhagen Airport

Copenhagen, Denmark

latitude: 55-37N, longitude: 012-39E, elevation: 5 m

Current weather observation

The report was made 28 minutes ago, at 22:20 UTC
Wind 17 kt from the East
Temperature 6°C
Humidity 70%
Pressure 1025 hPa
Visibility 10 km or more
Few clouds at a height of 3000 ft
Broken clouds at a height of 3300 ft

METAR: EKCH 202220Z 09017KT 9999 FEW030 BKN033 06/01 Q1025 NOSIG

Time: 23:48 (22:48 UTC)

Forecast

The report was made 5 hours and 46 minutes ago, at 17:02 UTC
Forecast valid from 20 at 18 UTC to 21 at 18 UTC
Wind 16 kt from the East
Visibility 10 km or more
Broken clouds at a height of 2000 ft

TAF: EKCH 201702Z 2018/2118 09016KT 9999 BKN020

Weather observations and forecasts of more than 4000 airports (METAR and TAF reports).

The available stations are represented by yellow and red dots on the map.

Hover mouse over dot to see the name of the station.

Then click to see weather observations and forecasts.

To change the map : click on the green buttons with a black cross to zoom in, on the green button with a dash to zoom out, or on the green arrows for adjacent maps.


METAR-TAF: